• Join FlightAware (Why Join?)
  • Login
  • US Flag GB Flag 
05:57 EDT


 

Airport Tracker/Info


-or-


 

Live Flight TrackerFlight Track Log ✈ SKW5631 ✈ 22-Jun-2013 ✈ KSFO - KBUR

Flight Track Log - Related Links

Times and Time Zones

All times are in EDT time to prevent confusion due to time zone crossing. See the SKW5631 flight status page for this flight to view local times or setup timezone preferences in your user account.

Time Position Orientation Groundspeed Altitude Reporting Facility
EDT Latitude Longitude Course Direction KTS MPH feet Rate Location/Type
22:33 36.9115 -121.5012 135° Southeast  Level Estimated
22:34 36.8226 -121.3931 136° Southeast  Level Estimated
22:35 36.7336 -121.2852 136° Southeast  Level Estimated
22:36 36.6445 -121.1776 136° Southeast  Level Estimated
22:37 36.5553 -121.0702 136° Southeast  Level Estimated
22:38 36.4660 -120.9631 136° Southeast  Level Estimated
22:39 36.3767 -120.8562 136° Southeast  Level Estimated
22:40 36.2872 -120.7496 136° Southeast  Level Estimated
22:41 36.1976 -120.6432 136° Southeast  Level Estimated
22:42 36.1079 -120.5371 136° Southeast  Level Estimated
22:43 36.0182 -120.4312 136° Southeast  Level Estimated
22:44 35.9283 -120.3256 136° Southeast  Level Estimated
22:45 35.8384 -120.2202 136° Southeast  Level Estimated
22:46 35.7484 -120.1150 137° Southeast  Level Estimated
22:47 35.6582 -120.0101 137° Southeast  Level Estimated
22:48 35.5680 -119.9054 137° Southeast  Level Estimated
22:49 35.4777 -119.8009 137° Southeast  Level Estimated
22:50 35.3873 -119.6967 137° Southeast  Level Estimated
22:51 35.2968 -119.5927 137° Southeast  Level Estimated
22:52 35.2062 -119.4889 137° Southeast  Level Estimated
22:53 35.1156 -119.3854 137° Southeast  Level Estimated
22:54 35.0248 -119.2821 137° Southeast  Level Estimated
22:55 34.9340 -119.1790 137° Southeast  Level Estimated
22:56 34.8431 -119.0762 137° Southeast  Level Estimated
22:57 34.7520 -118.9736 137° Southeast  Level Estimated
22:58 34.6609 -118.8712 137° Southeast  Level Estimated
22:59 34.5698 -118.7690 137° Southeast  Level Estimated
23:00 34.4785 -118.6671 137° Southeast  Level Estimated
23:01 34.3871 -118.5653 137° Southeast  Level Estimated
23:02 34.2957 -118.4638 137° Southeast  Level Estimated
23:03 34.2042 -118.3626 138° Southeast  Level Estimated
23:04 34.2007 -118.3587 138° Southeast  Level Estimated
23:05 34.2007 -118.3587 140° Southeast  Level Estimated
23:06 34.2007 -118.3587 140° Southeast  Level Estimated
23:07 34.2007 -118.3587 140° Southeast  Level Estimated
23:08 34.2007 -118.3587 140° Southeast  Level Estimated
23:09 34.2007 -118.3587 140° Southeast  Level Estimated
23:10 34.2007 -118.3587 140° Southeast  Level Estimated
23:11 34.2007 -118.3587 140° Southeast  Level Estimated
23:12 34.2007 -118.3587 140° Southeast  Level Estimated
23:13 34.2007 -118.3587 140° Southeast  Level Estimated
23:14 34.2007 -118.3587 140° Southeast  Level Estimated
23:15 34.2007 -118.3587 140° Southeast  Level Estimated
23:16 34.2007 -118.3587 140° Southeast  Level Estimated
23:17 34.2007 -118.3587 140° Southeast  Level Estimated
23:18 34.2007 -118.3587 140° Southeast  Level Estimated
23:19 34.2007 -118.3587 140° Southeast  Level Estimated